createdAt,value
2022-10-24T00:14:41.978Z,10.4
2022-10-24T00:30:24.372Z,11.2
2022-10-24T00:46:06.884Z,10.7
2022-10-24T01:01:49.786Z,10.4
2022-10-24T01:17:32.266Z,9.5
2022-10-24T01:33:14.400Z,8.1
2022-10-24T01:48:57.396Z,7.6
2022-10-24T02:04:39.582Z,7.1
2022-10-24T02:20:21.646Z,8.8
2022-10-24T02:36:04.053Z,7.6
2022-10-24T02:51:47.046Z,9.1
2022-10-24T03:07:29.931Z,7.9
2022-10-24T03:23:12.870Z,7.5
2022-10-24T03:38:55.063Z,7.4
2022-10-24T03:54:37.774Z,8.5
2022-10-24T04:10:19.851Z,12.8
2022-10-24T04:26:02.255Z,7.1
2022-10-24T04:41:44.690Z,8.1
2022-10-24T04:57:27.046Z,7.7
2022-10-24T05:13:09.536Z,8.89
2022-10-24T05:28:52.115Z,8.7
2022-10-24T05:44:34.438Z,8.1
2022-10-24T06:00:16.658Z,6.4
2022-10-24T06:15:59.053Z,20.1
2022-10-24T06:31:41.932Z,10.5
2022-10-24T06:47:25.101Z,11.7
2022-10-24T07:03:07.620Z,12.7
2022-10-24T07:18:49.858Z,11.5
2022-10-24T07:34:32.355Z,10.7
2022-10-24T07:50:15.196Z,10.1
2022-10-24T08:05:57.594Z,6.1
2022-10-24T08:21:40.306Z,3.9
2022-10-24T08:37:22.605Z,3.8
2022-10-24T08:53:05.011Z,3.2
2022-10-24T09:08:47.750Z,2.7
2022-10-24T09:24:30.568Z,2.3
2022-10-24T09:40:13.455Z,2.5
2022-10-24T09:55:55.618Z,2.2
2022-10-24T10:11:38.552Z,2.09
2022-10-24T10:27:20.867Z,2.2
2022-10-24T10:43:03.285Z,2.09
2022-10-24T10:58:45.356Z,1.9
2022-10-24T11:14:27.681Z,1.9
2022-10-24T11:30:10.540Z,2.09
2022-10-24T11:45:52.866Z,1.9
2022-10-24T12:01:35.201Z,1.9
2022-10-24T12:17:17.396Z,2.09
2022-10-24T12:32:59.550Z,1.9
2022-10-24T12:48:41.784Z,2.09
2022-10-24T13:04:24.440Z,2.09
2022-10-24T13:20:06.579Z,2.09
2022-10-24T13:20:53.793Z,1.9
2022-10-24T13:36:36.667Z,1.9
2022-10-24T13:52:19.468Z,2
2022-10-24T14:08:01.844Z,1.9
2022-10-24T14:23:44.789Z,2.09
2022-10-24T14:39:27.587Z,2.4
2022-10-24T14:55:10.295Z,2.3
2022-10-24T15:10:53.100Z,2.3
2022-10-24T15:26:35.325Z,3.9
2022-10-24T15:42:17.489Z,2.7
2022-10-24T15:57:59.824Z,2.7
2022-10-24T16:13:42.820Z,2.6
2022-10-24T16:29:24.983Z,2.4
2022-10-24T16:45:07.115Z,3.5
2022-10-24T17:00:49.148Z,2.09
2022-10-24T17:16:31.647Z,2
2022-10-24T17:32:13.974Z,1.9
2022-10-24T17:47:56.988Z,2
2022-10-24T18:03:39.570Z,2
2022-10-24T18:19:22.483Z,2
2022-10-24T18:35:04.522Z,2.09
2022-10-24T18:50:46.630Z,4.9
2022-10-24T19:06:29.352Z,2.2
2022-10-24T19:22:11.864Z,2.9
2022-10-24T19:37:54.488Z,2.2
2022-10-24T19:53:37.124Z,2.2
2022-10-24T20:09:20.122Z,2.09
2022-10-24T20:25:02.547Z,2.3
2022-10-24T20:40:44.789Z,2.2
2022-10-24T20:56:27.692Z,2.7
2022-10-24T21:12:10.631Z,2.5
2022-10-24T21:27:52.684Z,2.4
2022-10-24T21:43:34.814Z,2.7
2022-10-24T21:59:17.195Z,2.9
2022-10-24T22:14:59.417Z,3
2022-10-24T22:30:42.313Z,3.1
2022-10-24T22:46:25.004Z,2.9
2022-10-24T23:02:07.577Z,3.3
2022-10-24T23:17:50.073Z,3.7
2022-10-24T23:33:32.075Z,3.8
2022-10-24T23:49:14.688Z,4.1
